createdAt,value
2023-05-22T00:00:13.553Z,100603.50
2023-05-22T00:02:43.067Z,100614.69
2023-05-22T00:05:11.760Z,100620.19
2023-05-22T00:07:39.319Z,100548.63
2023-05-22T00:10:06.701Z,100601.44
2023-05-22T00:12:33.280Z,100635.00
2023-05-22T00:15:00.230Z,100580.91
2023-05-22T00:17:27.122Z,100631.75
2023-05-22T00:19:55.160Z,100626.53
2023-05-22T00:22:21.863Z,100609.06
2023-05-22T00:24:48.365Z,100627.06
2023-05-22T00:27:14.831Z,100578.84
2023-05-22T00:29:41.405Z,100628.38
2023-05-22T00:32:07.917Z,100614.69
2023-05-22T00:34:34.493Z,100609.00
2023-05-22T00:37:01.068Z,100526.41
2023-05-22T00:39:27.535Z,100579.97
2023-05-22T00:41:53.990Z,100557.28
2023-05-22T00:44:20.479Z,100603.25
2023-05-22T00:46:46.982Z,100557.03
2023-05-22T00:49:13.480Z,100598.06
2023-05-22T00:51:40.086Z,100563.66
2023-05-22T00:54:06.696Z,100543.97
2023-05-22T00:56:33.677Z,100583.78
2023-05-22T00:59:00.403Z,100555.34
2023-05-22T01:01:33.452Z,100528.16
2023-05-22T01:04:02.032Z,100556.72
2023-05-22T01:06:28.800Z,100598.84
2023-05-22T01:08:55.315Z,100600.88
2023-05-22T01:11:26.476Z,100604.97
2023-05-22T01:14:20.939Z,100602.34
2023-05-22T01:16:54.551Z,100606.66
2023-05-22T01:19:43.698Z,100613.34
2023-05-22T01:22:30.226Z,100609.63
2023-05-22T01:25:35.402Z,100610.09
2023-05-22T01:28:22.214Z,100609.91
2023-05-22T01:31:02.259Z,100606.91
2023-05-22T01:33:32.324Z,100569.72
2023-05-22T01:36:01.355Z,100600.47
2023-05-22T01:38:28.039Z,100585.13
2023-05-22T01:40:55.185Z,100593.66
2023-05-22T01:43:21.656Z,100601.31
2023-05-22T01:45:48.326Z,100585.63
2023-05-22T01:48:14.849Z,100598.63
2023-05-22T01:50:41.809Z,100597.81
2023-05-22T01:53:16.797Z,100598.72
2023-05-22T01:55:50.444Z,100598.53
2023-05-22T01:58:45.571Z,100599.53
2023-05-22T02:01:13.357Z,100602.19
2023-05-22T02:03:40.329Z,100603.19
2023-05-22T02:06:09.291Z,100607.34
2023-05-22T02:08:37.614Z,100585.56
2023-05-22T02:11:05.290Z,100587.25
2023-05-22T02:13:31.801Z,100581.50
2023-05-22T02:15:58.505Z,100597.38
2023-05-22T02:18:31.500Z,100567.00
2023-05-22T02:20:58.372Z,100588.53
2023-05-22T02:23:25.622Z,100588.06
2023-05-22T02:25:52.273Z,100536.75
2023-05-22T02:28:18.733Z,100585.56
2023-05-22T02:30:45.266Z,100585.94
2023-05-22T02:33:11.826Z,100591.44
2023-05-22T02:35:38.484Z,100580.41
2023-05-22T02:38:04.949Z,100566.31
2023-05-22T02:40:34.016Z,100585.00
2023-05-22T02:43:00.585Z,100589.22
2023-05-22T02:45:27.090Z,100589.59
2023-05-22T02:47:54.048Z,100563.31
2023-05-22T02:50:20.547Z,100582.56
2023-05-22T02:52:47.635Z,100584.47
2023-05-22T02:55:14.103Z,100530.75
2023-05-22T02:57:40.737Z,100562.50
2023-05-22T03:00:10.650Z,100574.16
2023-05-22T03:02:38.879Z,100526.41
2023-05-22T03:05:06.217Z,100575.75
2023-05-22T03:07:32.722Z,100525.38
2023-05-22T03:09:59.357Z,100572.13
2023-05-22T03:12:25.958Z,100559.13
2023-05-22T03:14:52.404Z,100570.84
2023-05-22T03:17:18.920Z,100571.94
2023-05-22T03:19:45.392Z,100569.09
2023-05-22T03:22:11.927Z,100528.75
2023-05-22T03:24:38.376Z,100564.25
2023-05-22T03:27:05.425Z,100563.41
2023-05-22T03:29:31.993Z,100557.00
2023-05-22T03:31:58.956Z,100563.59
2023-05-22T03:34:27.083Z,100568.00
2023-05-22T03:36:54.096Z,100550.59
2023-05-22T03:39:20.689Z,100568.88
2023-05-22T03:41:47.272Z,100570.59
2023-05-22T03:44:13.764Z,100537.66
2023-05-22T03:46:40.311Z,100569.44
2023-05-22T03:49:06.814Z,100562.03
2023-05-22T03:51:33.318Z,100540.06
2023-05-22T03:53:59.843Z,100546.97
2023-05-22T03:56:27.057Z,100552.44
2023-05-22T03:58:53.611Z,100571.13
2023-05-22T04:01:20.828Z,100569.00
2023-05-22T04:03:47.672Z,100568.97
2023-05-22T04:06:14.654Z,100565.06
2023-05-22T04:08:41.149Z,100573.16
2023-05-22T04:11:08.276Z,100550.66
2023-05-22T04:13:35.799Z,100569.53
2023-05-22T04:16:04.198Z,100554.63
2023-05-22T04:18:33.806Z,100569.34
2023-05-22T04:21:00.819Z,100538.72
2023-05-22T04:23:27.311Z,100555.50
2023-05-22T04:25:53.826Z,100564.41
2023-05-22T04:28:23.297Z,100559.50
2023-05-22T04:30:50.174Z,100557.53
2023-05-22T04:33:18.096Z,100558.53
2023-05-22T04:35:44.713Z,100563.13
2023-05-22T04:38:11.259Z,100548.34
2023-05-22T04:40:38.209Z,100563.38
2023-05-22T04:43:05.061Z,100558.22
2023-05-22T04:45:32.837Z,100563.16
2023-05-22T04:48:02.392Z,100561.38
2023-05-22T04:50:32.655Z,100552.56
2023-05-22T04:52:59.899Z,100550.75
2023-05-22T04:55:29.546Z,100558.63
2023-05-22T04:57:56.418Z,100545.53
2023-05-22T05:00:26.399Z,100556.06
2023-05-22T05:02:53.495Z,100549.97
2023-05-22T05:05:20.289Z,100540.59
2023-05-22T05:07:50.108Z,100547.06
2023-05-22T05:10:17.132Z,100550.06
2023-05-22T05:12:43.808Z,100529.75
2023-05-22T05:15:10.831Z,100547.84
2023-05-22T05:17:38.396Z,100547.13
2023-05-22T05:20:07.314Z,100554.22
2023-05-22T05:22:34.062Z,100530.06
2023-05-22T05:25:01.189Z,100524.53
2023-05-22T05:27:27.856Z,100552.78
2023-05-22T05:29:54.676Z,100559.59
2023-05-22T05:32:21.237Z,100523.34
2023-05-22T05:34:47.836Z,100505.63
2023-05-22T05:37:14.327Z,100441.25
2023-05-22T05:39:40.843Z,100550.63
2023-05-22T05:42:07.435Z,100542.13
2023-05-22T05:44:34.009Z,100525.78
2023-05-22T05:47:01.053Z,100532.34
2023-05-22T05:49:27.670Z,100548.47
2023-05-22T05:51:54.182Z,100566.81
2023-05-22T05:54:21.277Z,100554.53
2023-05-22T05:56:48.155Z,100562.97
2023-05-22T05:59:14.756Z,100531.34
2023-05-22T06:01:45.816Z,100562.19
2023-05-22T06:04:13.285Z,100558.47
2023-05-22T06:06:40.139Z,100531.22
2023-05-22T06:09:06.725Z,100572.00
2023-05-22T06:11:33.608Z,100537.75
2023-05-22T06:14:04.792Z,100578.00
2023-05-22T06:16:31.816Z,100568.16
2023-05-22T06:18:59.142Z,100569.94
2023-05-22T06:21:26.107Z,100571.69
2023-05-22T06:23:52.773Z,100565.22
2023-05-22T06:26:19.384Z,100564.47
2023-05-22T06:28:45.880Z,100528.44
2023-05-22T06:31:12.496Z,100569.38
2023-05-22T06:33:40.735Z,100557.34
2023-05-22T06:36:08.824Z,100573.41
2023-05-22T06:38:35.452Z,100531.72
2023-05-22T06:41:02.019Z,100576.72
2023-05-22T06:43:28.519Z,100573.97
2023-05-22T06:45:55.075Z,100578.09
2023-05-22T06:48:22.042Z,100583.38
2023-05-22T06:50:48.548Z,100579.66
2023-05-22T06:53:15.016Z,100581.91
2023-05-22T06:55:42.447Z,100587.88
2023-05-22T06:58:09.378Z,100577.56
2023-05-22T07:00:39.146Z,100560.84
2023-05-22T07:03:06.884Z,100573.31
2023-05-22T07:05:33.584Z,100550.47
2023-05-22T07:08:00.226Z,100590.06
2023-05-22T07:10:27.710Z,100561.88
2023-05-22T07:12:54.655Z,100577.03
2023-05-22T07:15:21.398Z,100535.22
2023-05-22T07:17:49.449Z,100589.03
2023-05-22T07:20:17.677Z,100548.81
2023-05-22T07:22:44.232Z,100554.69
2023-05-22T07:25:10.870Z,100579.44
2023-05-22T07:27:37.715Z,100588.22
2023-05-22T07:30:04.639Z,100541.03
2023-05-22T07:32:31.281Z,100596.16
2023-05-22T07:34:57.953Z,100594.84
2023-05-22T07:37:24.655Z,100572.94
2023-05-22T07:39:51.179Z,100566.69
2023-05-22T07:42:17.738Z,100553.31
2023-05-22T07:44:44.229Z,100570.53
2023-05-22T07:47:10.799Z,100577.88
2023-05-22T07:49:37.297Z,100585.84
2023-05-22T07:52:03.976Z,100588.09
2023-05-22T07:54:30.563Z,100593.63
2023-05-22T07:56:57.449Z,100602.78
2023-05-22T07:59:25.294Z,100600.16
2023-05-22T08:01:52.006Z,100582.59
2023-05-22T08:04:18.778Z,100593.72
2023-05-22T08:06:45.391Z,100576.31
2023-05-22T08:09:12.025Z,100614.78
2023-05-22T08:11:42.031Z,100574.03
2023-05-22T08:14:08.964Z,100616.03
2023-05-22T08:16:35.560Z,100614.53
2023-05-22T08:19:02.521Z,100604.59
2023-05-22T08:21:29.287Z,100615.06
2023-05-22T08:23:56.060Z,100612.91
2023-05-22T08:26:23.166Z,100500.16
2023-05-22T08:28:49.680Z,100598.34
2023-05-22T08:31:16.302Z,100584.97
2023-05-22T08:33:43.130Z,100618.84
2023-05-22T08:36:09.808Z,100604.38
2023-05-22T08:38:37.173Z,100589.38
2023-05-22T08:41:05.171Z,100585.22
2023-05-22T08:43:32.011Z,100616.63
2023-05-22T08:46:09.283Z,100611.91
2023-05-22T08:48:37.254Z,100578.34
2023-05-22T08:51:05.777Z,100616.97
2023-05-22T08:53:38.790Z,100579.22
2023-05-22T08:56:06.885Z,100578.03
2023-05-22T08:58:35.148Z,100607.28
2023-05-22T09:01:02.118Z,100604.19
2023-05-22T09:03:32.906Z,100565.31
2023-05-22T09:05:59.924Z,100584.69
2023-05-22T09:08:27.413Z,100608.53
2023-05-22T09:10:57.579Z,100579.19
2023-05-22T09:13:27.223Z,100604.59
2023-05-22T09:15:58.377Z,100599.25
2023-05-22T09:18:27.396Z,100602.69
2023-05-22T09:20:53.906Z,100600.94
2023-05-22T09:23:22.135Z,100594.88
2023-05-22T09:25:48.729Z,100590.66
2023-05-22T09:28:15.229Z,100580.97
2023-05-22T09:30:42.653Z,100597.09
2023-05-22T09:33:12.915Z,100591.50
2023-05-22T09:35:39.781Z,100589.84
2023-05-22T09:38:06.516Z,100596.75
2023-05-22T09:40:34.933Z,100601.13
2023-05-22T09:43:02.532Z,100562.56
2023-05-22T09:45:29.017Z,100568.22
2023-05-22T09:47:55.647Z,100590.00
2023-05-22T09:50:22.316Z,100580.56
2023-05-22T09:52:50.732Z,100582.31
2023-05-22T09:55:19.084Z,100559.88
2023-05-22T09:57:46.355Z,100578.72
2023-05-22T10:00:18.330Z,100580.75
2023-05-22T10:02:46.959Z,100565.03
2023-05-22T10:05:23.503Z,100574.09
2023-05-22T10:07:52.105Z,100582.66
2023-05-22T10:10:21.980Z,100562.44
2023-05-22T10:12:52.772Z,100575.75
2023-05-22T10:15:19.875Z,100554.59
2023-05-22T10:17:47.860Z,100575.84
2023-05-22T10:20:15.987Z,100562.50
2023-05-22T10:22:44.517Z,100571.44
2023-05-22T10:25:11.627Z,100557.31
2023-05-22T10:27:39.362Z,100564.19
2023-05-22T10:30:36.348Z,100560.47
2023-05-22T10:33:21.891Z,100564.47
2023-05-22T10:36:10.527Z,100573.75
2023-05-22T10:38:55.917Z,100562.47
2023-05-22T10:41:23.134Z,100534.81
2023-05-22T10:43:50.744Z,100533.72
2023-05-22T10:46:17.945Z,100552.66
2023-05-22T10:48:46.297Z,100551.88
2023-05-22T10:51:15.541Z,100538.50
2023-05-22T10:53:45.401Z,100553.88
2023-05-22T10:56:13.282Z,100540.38
2023-05-22T10:58:42.575Z,100520.34
2023-05-22T11:01:16.901Z,100542.50
2023-05-22T11:03:56.677Z,100537.03
2023-05-22T11:06:37.700Z,100534.66
2023-05-22T11:09:26.169Z,100539.97
2023-05-22T11:12:13.348Z,100537.94
2023-05-22T11:14:39.952Z,100530.72
2023-05-22T11:17:06.845Z,100528.41
2023-05-22T11:19:33.602Z,100509.13
2023-05-22T11:22:01.353Z,100525.31
2023-05-22T11:24:33.131Z,100509.06
2023-05-22T11:27:05.964Z,100514.03
2023-05-22T11:29:32.865Z,100522.75
2023-05-22T11:31:59.821Z,100503.06
2023-05-22T11:34:26.371Z,100491.88
2023-05-22T11:36:53.295Z,100519.38
2023-05-22T11:39:19.789Z,100500.34
2023-05-22T11:41:46.286Z,100507.50
2023-05-22T11:44:12.741Z,100500.53
2023-05-22T11:46:39.853Z,100509.38
2023-05-22T11:49:09.253Z,100487.19
2023-05-22T11:51:38.845Z,100483.06
2023-05-22T11:54:05.466Z,100487.16
2023-05-22T11:56:31.999Z,100497.06
2023-05-22T11:58:58.900Z,100497.44
2023-05-22T12:01:25.463Z,100504.56
2023-05-22T12:03:52.044Z,100499.38
2023-05-22T12:06:18.717Z,100494.00
2023-05-22T12:08:45.417Z,100489.78
2023-05-22T12:11:12.601Z,100485.47
2023-05-22T12:13:39.275Z,100464.34
2023-05-22T12:16:18.652Z,100484.19
2023-05-22T12:18:45.310Z,100479.19
2023-05-22T12:21:11.843Z,100481.94
2023-05-22T12:23:47.687Z,100485.06
2023-05-22T12:26:14.199Z,100476.00
2023-05-22T12:28:40.730Z,100485.53
2023-05-22T12:31:07.284Z,100485.84
2023-05-22T12:33:33.904Z,100452.97
2023-05-22T12:36:00.496Z,100485.59
2023-05-22T12:38:28.337Z,100494.88
2023-05-22T12:40:55.630Z,100504.13
2023-05-22T12:43:25.503Z,100503.06
2023-05-22T12:45:52.523Z,100466.28
2023-05-22T12:48:19.758Z,100499.84
2023-05-22T12:50:46.804Z,100497.06
2023-05-22T12:53:13.434Z,100473.66
2023-05-22T12:55:40.069Z,100456.84
2023-05-22T12:58:06.842Z,100510.25
2023-05-22T13:00:34.820Z,100475.31
2023-05-22T13:03:01.701Z,100506.63
2023-05-22T13:05:29.807Z,100518.00
2023-05-22T13:07:56.736Z,100465.38
2023-05-22T13:10:23.237Z,100498.19
2023-05-22T13:12:51.463Z,100514.66
2023-05-22T13:15:18.660Z,100521.56
2023-05-22T13:17:45.718Z,100500.75
2023-05-22T13:20:12.972Z,100504.78
2023-05-22T13:22:40.351Z,100504.19
2023-05-22T13:25:07.160Z,100501.25
2023-05-22T13:27:34.025Z,100450.47
2023-05-22T13:30:00.695Z,100493.25
2023-05-22T13:32:27.278Z,100472.63
2023-05-22T13:34:53.793Z,100441.59
2023-05-22T13:37:20.663Z,100481.94
2023-05-22T13:39:50.125Z,100480.03
2023-05-22T13:42:16.691Z,100475.00
2023-05-22T13:44:46.164Z,100481.59
2023-05-22T13:47:12.884Z,100475.81
2023-05-22T13:49:39.558Z,100474.78
2023-05-22T13:52:06.102Z,100482.50
2023-05-22T13:54:32.609Z,100428.88
2023-05-22T13:56:59.970Z,100473.44
2023-05-22T13:59:27.168Z,100478.94
2023-05-22T14:01:53.669Z,100464.56
2023-05-22T14:04:20.266Z,100469.31
2023-05-22T14:06:46.844Z,100441.75
2023-05-22T14:09:13.375Z,100471.75
2023-05-22T14:11:39.836Z,100473.91
2023-05-22T14:14:07.773Z,100477.75
2023-05-22T14:16:34.403Z,100480.16
2023-05-22T14:19:01.457Z,100480.09
2023-05-22T14:21:28.191Z,100474.47
2023-05-22T14:23:54.709Z,100483.63
2023-05-22T14:26:21.547Z,100477.75
2023-05-22T14:28:48.319Z,100468.19
2023-05-22T14:31:14.848Z,100471.00
2023-05-22T14:33:41.344Z,100434.88
2023-05-22T14:36:07.961Z,100437.03
2023-05-22T14:38:34.671Z,100441.47
2023-05-22T14:41:01.670Z,100465.03
2023-05-22T14:43:28.298Z,100468.34
2023-05-22T14:45:56.460Z,100462.75
2023-05-22T14:48:26.209Z,100466.09
2023-05-22T14:50:55.867Z,100466.28
2023-05-22T14:53:22.816Z,100468.63
2023-05-22T14:55:49.354Z,100472.97
2023-05-22T14:58:15.859Z,100468.97
2023-05-22T15:00:42.811Z,100450.22
2023-05-22T15:03:09.434Z,100490.31
2023-05-22T15:05:36.112Z,100517.13
2023-05-22T15:08:02.687Z,100539.06
2023-05-22T15:10:29.214Z,100547.50
2023-05-22T15:12:55.771Z,100504.59
2023-05-22T15:15:24.828Z,100547.91
2023-05-22T15:17:51.423Z,100549.28
2023-05-22T15:20:18.090Z,100560.25
2023-05-22T15:22:44.652Z,100569.13
2023-05-22T15:25:14.853Z,100562.50
2023-05-22T15:27:42.371Z,100521.97
2023-05-22T15:30:10.052Z,100554.03
2023-05-22T15:32:37.352Z,100539.28
2023-05-22T15:35:05.594Z,100542.91
2023-05-22T15:37:33.664Z,100548.44
2023-05-22T15:40:06.782Z,100562.13
2023-05-22T15:42:33.268Z,100567.22
2023-05-22T15:45:00.240Z,100560.06
2023-05-22T15:47:28.858Z,100549.47
2023-05-22T15:49:55.832Z,100513.84
2023-05-22T15:52:24.468Z,100555.66
2023-05-22T15:54:51.154Z,100535.63
2023-05-22T15:57:17.689Z,100538.31
2023-05-22T15:59:47.011Z,100484.91
2023-05-22T16:02:14.146Z,100527.44
2023-05-22T16:04:40.697Z,100488.75
2023-05-22T16:07:07.604Z,100476.69
2023-05-22T16:09:35.283Z,100484.97
2023-05-22T16:12:02.677Z,100494.38
2023-05-22T16:14:29.429Z,100516.00
2023-05-22T16:16:56.497Z,100487.88
2023-05-22T16:19:23.394Z,100491.56
2023-05-22T16:21:49.959Z,100512.31
2023-05-22T16:24:16.453Z,100485.94
2023-05-22T16:26:43.454Z,100476.72
2023-05-22T16:29:09.959Z,100509.13
2023-05-22T16:31:36.565Z,100509.16
2023-05-22T16:34:04.142Z,100499.03
2023-05-22T16:36:31.108Z,100496.13
2023-05-22T16:38:57.677Z,100528.50
2023-05-22T16:41:24.225Z,100518.34
2023-05-22T16:43:50.809Z,100522.31
2023-05-22T16:46:18.311Z,100522.97
2023-05-22T16:48:45.837Z,100514.69
2023-05-22T16:51:12.375Z,100519.06
2023-05-22T16:53:40.646Z,100478.25
2023-05-22T16:56:07.384Z,100371.97
2023-05-22T16:58:34.027Z,100478.56
2023-05-22T17:01:08.708Z,100489.53
2023-05-22T17:03:38.189Z,100473.81
2023-05-22T17:06:05.173Z,100453.31
2023-05-22T17:08:32.180Z,100514.34
2023-05-22T17:10:58.814Z,100499.09
2023-05-22T17:13:25.426Z,100519.25
2023-05-22T17:15:52.017Z,100519.25
2023-05-22T17:18:22.399Z,100532.28
2023-05-22T17:20:50.116Z,100545.63
2023-05-22T17:23:17.587Z,100535.31
2023-05-22T17:25:46.613Z,100570.50
2023-05-22T17:28:14.326Z,100585.25
2023-05-22T17:30:42.316Z,100579.13
2023-05-22T17:33:09.208Z,100612.28
2023-05-22T17:35:35.823Z,100612.66
2023-05-22T17:38:02.338Z,100616.38
2023-05-22T17:40:40.511Z,100568.78
2023-05-22T17:43:11.255Z,100591.47
2023-05-22T17:45:37.995Z,100615.50
2023-05-22T17:48:06.490Z,100618.72
2023-05-22T17:50:32.982Z,100571.31
2023-05-22T17:52:59.482Z,100628.50
2023-05-22T17:55:26.038Z,100643.28
2023-05-22T17:57:52.676Z,100602.47
2023-05-22T18:00:19.578Z,100659.13
2023-05-22T18:02:47.581Z,100656.56
2023-05-22T18:05:15.532Z,100626.56
2023-05-22T18:07:42.109Z,100624.03
2023-05-22T18:10:09.015Z,100603.81
2023-05-22T18:12:37.984Z,100639.50
2023-05-22T18:15:05.344Z,100600.59
2023-05-22T18:17:32.450Z,100578.00
2023-05-22T18:19:59.209Z,100633.97
2023-05-22T18:22:25.660Z,100630.31
2023-05-22T18:24:52.201Z,100637.00
2023-05-22T18:27:18.700Z,100646.28
2023-05-22T18:29:45.169Z,100646.91
2023-05-22T18:32:13.559Z,100646.47
2023-05-22T18:34:41.020Z,100660.72
2023-05-22T18:37:07.558Z,100659.38
2023-05-22T18:39:34.031Z,100633.09
2023-05-22T18:42:00.624Z,100671.50
2023-05-22T18:44:27.114Z,100648.91
2023-05-22T18:46:54.198Z,100666.50
2023-05-22T18:49:20.912Z,100662.00
2023-05-22T18:51:47.480Z,100665.09
2023-05-22T18:54:13.973Z,100667.69
2023-05-22T18:56:40.618Z,100676.13
2023-05-22T18:59:09.918Z,100675.66
2023-05-22T19:01:36.538Z,100681.88
2023-05-22T19:04:03.172Z,100684.75
2023-05-22T19:06:30.498Z,100684.22
2023-05-22T19:08:57.121Z,100672.59
2023-05-22T19:11:23.687Z,100685.13
2023-05-22T19:13:53.672Z,100681.97
2023-05-22T19:16:20.430Z,100691.88
2023-05-22T19:18:47.031Z,100663.53
2023-05-22T19:21:13.606Z,100683.09
2023-05-22T19:23:40.270Z,100671.69
2023-05-22T19:26:06.819Z,100668.22
2023-05-22T19:28:33.389Z,100664.28
2023-05-22T19:31:03.073Z,100698.31
2023-05-22T19:33:31.187Z,100680.25
2023-05-22T19:35:58.802Z,100693.78
2023-05-22T19:38:25.576Z,100657.44
2023-05-22T19:40:52.101Z,100715.78
2023-05-22T19:43:18.749Z,100713.88
2023-05-22T19:45:45.649Z,100710.56
2023-05-22T19:48:13.140Z,100721.09
2023-05-22T19:50:41.196Z,100689.09
2023-05-22T19:53:07.934Z,100722.50
2023-05-22T19:55:34.406Z,100719.19
2023-05-22T19:58:00.870Z,100719.47
2023-05-22T20:00:31.387Z,100696.94
2023-05-22T20:02:58.082Z,100709.03
2023-05-22T20:05:25.878Z,100720.22
2023-05-22T20:07:52.392Z,100736.75
2023-05-22T20:10:18.969Z,100739.25
2023-05-22T20:12:45.895Z,100718.59
2023-05-22T20:15:14.831Z,100737.41
2023-05-22T20:17:42.496Z,100741.88
2023-05-22T20:20:13.498Z,100713.03
2023-05-22T20:22:40.049Z,100701.69
2023-05-22T20:25:07.147Z,100739.72
2023-05-22T20:27:33.704Z,100746.72
2023-05-22T20:30:00.496Z,100744.94
2023-05-22T20:32:27.366Z,100723.91
2023-05-22T20:34:55.316Z,100749.84
2023-05-22T20:37:22.318Z,100725.41
2023-05-22T20:39:50.206Z,100731.72
2023-05-22T20:42:17.481Z,100746.91
2023-05-22T20:44:44.125Z,100747.94
2023-05-22T20:47:13.367Z,100713.41
2023-05-22T20:49:40.418Z,100739.75
2023-05-22T20:52:06.941Z,100730.88
2023-05-22T20:54:34.626Z,100718.97
2023-05-22T20:57:01.722Z,100706.44
2023-05-22T20:59:29.023Z,100765.09
2023-05-22T21:01:56.888Z,100725.41
2023-05-22T21:04:23.928Z,100765.63
2023-05-22T21:06:50.998Z,100747.44
2023-05-22T21:09:17.557Z,100764.13
2023-05-22T21:11:44.071Z,100710.66
2023-05-22T21:14:10.648Z,100761.31
2023-05-22T21:16:39.496Z,100745.91
2023-05-22T21:19:07.477Z,100763.78
2023-05-22T21:21:35.663Z,100726.59
2023-05-22T21:24:02.234Z,100718.69
2023-05-22T21:26:28.727Z,100742.75
2023-05-22T21:28:55.332Z,100757.22
2023-05-22T21:31:22.015Z,100731.00
2023-05-22T21:33:54.333Z,100743.22
2023-05-22T21:36:20.798Z,100737.81
2023-05-22T21:38:51.584Z,100767.88
2023-05-22T21:41:18.063Z,100730.31
2023-05-22T21:43:47.230Z,100781.25
2023-05-22T21:46:13.773Z,100752.94
2023-05-22T21:48:40.482Z,100747.56
2023-05-22T21:51:07.062Z,100772.19
2023-05-22T21:53:33.591Z,100749.34
2023-05-22T21:56:00.162Z,100779.75
2023-05-22T21:58:26.731Z,100788.63
2023-05-22T22:00:53.204Z,100796.09
2023-05-22T22:03:19.723Z,100796.53
2023-05-22T22:05:46.695Z,100745.31
2023-05-22T22:08:14.334Z,100801.00
2023-05-22T22:10:41.014Z,100799.44
2023-05-22T22:13:07.825Z,100803.13
2023-05-22T22:15:34.445Z,100752.06
2023-05-22T22:18:02.385Z,100780.91
2023-05-22T22:20:43.531Z,100762.31
2023-05-22T22:23:12.547Z,100798.59
2023-05-22T22:25:39.459Z,100798.59
2023-05-22T22:28:07.206Z,100800.28
2023-05-22T22:30:33.905Z,100804.81
2023-05-22T22:33:00.636Z,100803.31
2023-05-22T22:35:27.250Z,100750.06
2023-05-22T22:37:53.795Z,100792.75
2023-05-22T22:40:20.447Z,100768.88
2023-05-22T22:42:46.978Z,100762.16
2023-05-22T22:45:14.672Z,100805.50
2023-05-22T22:47:41.322Z,100799.78
2023-05-22T22:50:09.918Z,100802.47
2023-05-22T22:52:37.831Z,100805.13
2023-05-22T22:55:11.038Z,100758.91
2023-05-22T22:57:37.637Z,100808.34
2023-05-22T23:00:05.578Z,100792.38
2023-05-22T23:02:32.067Z,100811.53
2023-05-22T23:04:58.644Z,100753.56
2023-05-22T23:07:25.533Z,100804.81
2023-05-22T23:09:52.020Z,100779.31
2023-05-22T23:12:20.435Z,100817.75
2023-05-22T23:14:47.729Z,100777.63
2023-05-22T23:17:14.274Z,100778.44
2023-05-22T23:19:40.797Z,100805.81
2023-05-22T23:22:07.443Z,100828.84
2023-05-22T23:24:34.274Z,100829.50
2023-05-22T23:27:01.368Z,100799.94
2023-05-22T23:29:28.060Z,100812.25
2023-05-22T23:31:55.430Z,100824.66
2023-05-22T23:34:22.016Z,100832.38
2023-05-22T23:36:51.761Z,100806.81
2023-05-22T23:39:18.256Z,100834.38
2023-05-22T23:41:45.389Z,100792.63
2023-05-22T23:44:12.173Z,100835.25
2023-05-22T23:46:39.741Z,100839.97
2023-05-22T23:49:07.176Z,100790.56
2023-05-22T23:51:33.680Z,100827.97
2023-05-22T23:54:00.368Z,100829.13
2023-05-22T23:56:26.864Z,100793.00
2023-05-22T23:58:53.406Z,100806.31
